Time;durP1;ratioP1;P1;durP2;ratioP2;P2;SDS_P1;SDS_P2;PMS_P1;PMS_P2;Temp;Humidity;BMP_temperature;BMP_pressure;BME280_temperature;BME280_humidity;BME280_pressure;Samples;Min_cycle;Max_cycle;Signal;HPM_P1;HPM_P2
2023/12/17 00:00:40;;;;;;;25.07;10.77;;;;;;;8.22;100.00;102951.59;6048036;28;20525;-73
2023/12/17 00:03:35;;;;;;;25.20;10.93;;;;;;;8.19;100.00;102967.59;6046939;28;20037;-73
2023/12/17 00:06:34;;;;;;;24.30;11.33;;;;;;;8.24;100.00;102972.66;6048094;28;20037;-73
2023/12/17 00:09:29;;;;;;;24.75;10.77;;;;;;;8.21;100.00;102960.47;6043044;28;20125;-74
2023/12/17 00:12:25;;;;;;;27.25;10.63;;;;;;;8.20;100.00;102942.91;6041446;28;20038;-73
2023/12/17 00:15:20;;;;;;;19.30;9.47;;;;;;;8.24;100.00;102949.72;6047842;28;20026;-73
2023/12/17 00:18:15;;;;;;;25.23;11.77;;;;;;;8.20;100.00;102942.03;6047204;28;20034;-72
2023/12/17 00:21:10;;;;;;;22.73;9.80;;;;;;;8.25;100.00;102940.03;6047587;28;20040;-74
2023/12/17 00:24:06;;;;;;;24.73;11.60;;;;;;;8.27;100.00;102941.69;6049849;28;20033;-73
2023/12/17 00:27:01;;;;;;;23.57;11.17;;;;;;;8.23;100.00;102933.97;6052039;28;20287;-73
2023/12/17 00:29:56;;;;;;;24.60;10.33;;;;;;;8.26;100.00;102933.81;6051897;28;20042;-73
2023/12/17 00:32:52;;;;;;;27.53;12.47;;;;;;;8.23;100.00;102931.31;6051149;28;20026;-73
2023/12/17 00:35:47;;;;;;;22.53;9.47;;;;;;;8.23;100.00;102931.31;6051754;28;20668;-73
2023/12/17 00:38:42;;;;;;;22.63;10.20;;;;;;;8.25;100.00;102935.59;6051321;28;20053;-73
2023/12/17 00:41:38;;;;;;;21.83;9.33;;;;;;;8.26;100.00;102932.00;6050569;28;20664;-73
2023/12/17 00:44:33;;;;;;;24.10;10.25;;;;;;;8.32;100.00;102936.16;6051488;28;20409;-73
2023/12/17 00:47:29;;;;;;;21.63;9.87;;;;;;;8.28;100.00;102932.84;6052390;28;20036;-73
2023/12/17 00:50:24;;;;;;;25.07;11.00;;;;;;;8.29;100.00;102941.59;6053609;28;20481;-73
2023/12/17 00:53:19;;;;;;;22.60;9.40;;;;;;;8.32;100.00;102936.16;6031773;28;20038;-74
2023/12/17 00:56:15;;;;;;;24.20;10.53;;;;;;;8.26;100.00;102942.56;6050545;28;20034;-73
2023/12/17 00:59:10;;;;;;;21.80;9.50;;;;;;;8.30;100.00;102940.69;6051293;28;20022;-73
2023/12/17 01:02:08;;;;;;;23.57;10.17;;;;;;;8.32;100.00;102944.94;6050303;28;20096;-74
2023/12/17 01:05:03;;;;;;;21.77;9.75;;;;;;;8.24;100.00;102927.72;6033400;28;20273;-73
2023/12/17 01:07:59;;;;;;;21.92;9.07;;;;;;;8.31;100.00;102940.63;6048208;28;20440;-72
2023/12/17 01:10:54;;;;;;;17.83;9.27;;;;;;;8.34;100.00;102948.38;6049907;28;20474;-72
2023/12/17 01:13:50;;;;;;;20.57;10.63;;;;;;;8.28;100.00;102939.91;6050378;28;20108;-73
2023/12/17 01:16:46;;;;;;;19.23;8.90;;;;;;;8.31;100.00;102952.97;6050093;28;20026;-74
2023/12/17 01:19:41;;;;;;;25.60;10.82;;;;;;;8.27;100.00;102943.47;6049592;28;20655;-73
2023/12/17 01:22:39;;;;;;;22.23;9.87;;;;;;;8.31;100.00;102950.34;6050239;28;20037;-73
2023/12/17 01:25:35;;;;;;;23.23;10.23;;;;;;;8.32;100.00;102952.03;6049076;28;20072;-72
2023/12/17 01:28:31;;;;;;;26.67;11.45;;;;;;;8.28;100.00;102945.19;6050143;28;20034;-73
2023/12/17 01:31:26;;;;;;;25.33;10.15;;;;;;;8.30;100.00;102953.91;6049561;28;20445;-72
2023/12/17 01:34:22;;;;;;;21.13;9.25;;;;;;;8.23;100.00;102941.91;6048917;28;20113;-71
2023/12/17 01:37:17;;;;;;;21.48;10.20;;;;;;;8.26;100.00;102958.44;6031757;28;20033;-72
2023/12/17 01:40:12;;;;;;;23.63;9.83;;;;;;;8.28;100.00;102955.75;6050394;28;20068;-72
2023/12/17 01:43:08;;;;;;;21.73;9.82;;;;;;;8.31;100.00;102956.47;6064762;28;20037;-72
2023/12/17 01:46:04;;;;;;;24.40;10.18;;;;;;;8.30;100.00;102956.53;6049732;28;20025;-72
2023/12/17 01:49:05;;;;;;;23.58;9.93;;;;;;;8.29;100.00;102947.75;6047302;28;20041;-72
2023/12/17 01:52:00;;;;;;;20.25;8.63;;;;;;;8.29;100.00;102953.03;6064191;28;20034;-75
2023/12/17 01:54:56;;;;;;;21.67;9.77;;;;;;;8.27;100.00;102939.03;6050104;28;20519;-73
2023/12/17 01:57:51;;;;;;;21.35;9.50;;;;;;;8.25;100.00;102946.16;6048718;28;20366;-71
2023/12/17 02:00:48;;;;;;;22.23;8.77;;;;;;;8.28;100.00;102956.63;6048227;28;20408;-73
2023/12/17 02:03:43;;;;;;;19.80;8.85;;;;;;;8.21;100.00;102944.59;6052975;28;20365;-73
2023/12/17 02:06:39;;;;;;;22.63;8.95;;;;;;;8.20;100.00;102948.19;6050583;28;20041;-73
2023/12/17 02:09:34;;;;;;;17.67;8.23;;;;;;;8.26;100.00;102949.69;6049817;28;20029;-73
2023/12/17 02:12:29;;;;;;;18.75;8.73;;;;;;;8.21;100.00;102939.31;6050614;28;20080;-73
2023/12/17 02:15:27;;;;;;;21.07;8.30;;;;;;;8.24;100.00;102949.72;6049106;28;20697;-74
2023/12/17 02:18:23;;;;;;;15.77;6.90;;;;;;;8.27;100.00;102957.53;6047993;28;20038;-73
2023/12/17 02:21:18;;;;;;;16.87;6.57;;;;;;;8.26;100.00;102963.72;6049621;28;20084;-74
2023/12/17 02:24:13;;;;;;;16.63;6.87;;;;;;;8.26;100.00;102952.31;6048689;28;20107;-73
2023/12/17 02:27:09;;;;;;;15.67;6.93;;;;;;;8.25;100.00;102946.16;6048576;28;20576;-73
2023/12/17 02:30:05;;;;;;;16.17;7.50;;;;;;;8.22;100.00;102946.31;6048626;28;20313;-73
2023/12/17 02:33:00;;;;;;;15.57;7.80;;;;;;;8.14;100.00;102943.19;6048631;28;20045;-73
2023/12/17 02:35:56;;;;;;;17.33;7.00;;;;;;;8.24;100.00;102959.44;6048960;28;20022;-73
2023/12/17 02:38:51;;;;;;;14.77;6.67;;;;;;;8.25;100.00;102954.09;6048891;28;20091;-73
2023/12/17 02:41:46;;;;;;;18.20;7.57;;;;;;;8.25;100.00;102967.31;6048326;28;20088;-73
2023/12/17 02:44:42;;;;;;;15.77;7.83;;;;;;;8.22;100.00;102954.25;6048723;28;20055;-74
2023/12/17 02:47:39;;;;;;;16.08;6.60;;;;;;;8.24;100.00;102955.03;6061586;28;20033;-73
2023/12/17 02:50:34;;;;;;;14.50;7.15;;;;;;;8.30;100.00;102949.47;6028299;28;20026;-72
2023/12/17 02:53:29;;;;;;;16.40;7.23;;;;;;;8.28;100.00;102934.63;6048381;28;20480;-73
2023/12/17 02:56:25;;;;;;;15.30;6.37;;;;;;;8.24;100.00;102928.59;6048780;28;20489;-73
2023/12/17 02:59:20;;;;;;;14.82;6.57;;;;;;;8.22;100.00;102941.03;6030546;28;20033;-73
2023/12/17 03:02:16;;;;;;;13.10;6.57;;;;;;;8.22;100.00;102938.38;6048402;28;20033;-72
2023/12/17 03:05:15;;;;;;;14.20;6.40;;;;;;;8.21;100.00;102931.38;6048439;28;20038;-73
2023/12/17 03:08:10;;;;;;;15.98;6.68;;;;;;;8.16;100.00;102925.47;6060161;28;20022;-73
2023/12/17 03:11:29;;;;;;;12.87;5.57;;;;;;;8.22;100.00;102913.75;6047114;28;20444;-73
2023/12/17 03:14:24;;;;;;;14.57;6.75;;;;;;;8.28;100.00;102929.34;6047380;28;20427;-73
2023/12/17 03:17:20;;;;;;;14.67;7.60;;;;;;;8.23;100.00;102920.75;6047617;28;20038;-72
2023/12/17 03:20:15;;;;;;;14.13;6.13;;;;;;;8.22;100.00;102924.31;6048790;28;20268;-73
2023/12/17 03:23:11;;;;;;;11.97;5.73;;;;;;;8.16;100.00;102919.31;6048412;28;20053;-73
2023/12/17 03:26:08;;;;;;;14.35;6.25;;;;;;;8.21;100.00;102909.38;6025746;28;20300;-72
2023/12/17 03:29:04;;;;;;;12.85;6.45;;;;;;;8.14;100.00;102895.63;6063625;28;20030;-74
2023/12/17 03:32:02;;;;;;;14.93;6.57;;;;;;;8.20;100.00;102900.63;6046256;28;20034;-73
2023/12/17 03:34:58;;;;;;;12.55;5.82;;;;;;;8.10;100.00;102882.66;6046447;28;20630;-73
2023/12/17 03:37:53;;;;;;;14.82;6.75;;;;;;;8.20;100.00;102900.63;6045763;28;20045;-73
2023/12/17 03:40:49;;;;;;;13.90;5.40;;;;;;;8.13;100.00;102898.34;6048586;28;20049;-73
2023/12/17 03:43:44;;;;;;;12.73;5.67;;;;;;;8.11;100.00;102879.94;6047906;28;20381;-73
2023/12/17 03:46:40;;;;;;;14.20;5.77;;;;;;;8.18;100.00;102883.13;6047352;28;20038;-74
2023/12/17 03:49:35;;;;;;;12.88;6.25;;;;;;;8.14;100.00;102873.63;6048474;28;20041;-73
2023/12/17 03:52:30;;;;;;;15.30;6.67;;;;;;;8.17;100.00;102874.34;6047901;28;20088;-73
2023/12/17 03:55:25;;;;;;;11.57;5.07;;;;;;;8.16;100.00;102866.47;6047417;28;20386;-73
2023/12/17 03:58:21;;;;;;;11.50;5.47;;;;;;;8.16;100.00;102867.34;6050357;28;20041;-73
2023/12/17 04:01:16;;;;;;;11.53;6.27;;;;;;;8.12;100.00;102860.50;6051856;28;20040;-73
2023/12/17 04:04:12;;;;;;;10.33;5.57;;;;;;;8.15;100.00;102864.78;6052572;28;20060;-73
2023/12/17 04:07:07;;;;;;;13.85;5.40;;;;;;;8.16;100.00;102872.63;6051451;28;20513;-73
2023/12/17 04:10:03;;;;;;;11.17;5.60;;;;;;;8.15;100.00;102856.84;6052636;28;20430;-72
2023/12/17 04:12:58;;;;;;;12.20;5.47;;;;;;;8.18;100.00;102862.81;6051695;28;20030;-73
2023/12/17 04:15:55;;;;;;;12.30;5.63;;;;;;;8.16;100.00;102858.53;6064297;28;20056;-74
2023/12/17 04:18:50;;;;;;;13.65;5.60;;;;;;;8.15;100.00;102855.03;6037225;28;20473;-73
2023/12/17 04:21:46;;;;;;;11.53;5.40;;;;;;;8.18;100.00;102848.78;6082280;28;20053;-73
2023/12/17 04:24:41;;;;;;;10.53;5.10;;;;;;;8.21;100.00;102848.59;6051534;28;20026;-73
2023/12/17 04:27:36;;;;;;;11.37;5.00;;;;;;;8.22;100.00;102850.31;6050361;28;20092;-73
2023/12/17 04:30:32;;;;;;;13.70;5.40;;;;;;;8.19;100.00;102847.81;6052210;28;20084;-73
2023/12/17 04:33:27;;;;;;;10.83;5.43;;;;;;;8.26;100.00;102855.34;6051380;28;20030;-73
2023/12/17 04:36:25;;;;;;;10.93;5.13;;;;;;;8.21;100.00;102854.75;6065035;28;20292;-73
2023/12/17 04:39:20;;;;;;;13.48;6.07;;;;;;;8.26;100.00;102862.47;6063009;28;20022;-73
2023/12/17 04:42:16;;;;;;;12.00;5.68;;;;;;;8.20;100.00;102853.06;6049168;28;20473;-72
2023/12/17 04:45:14;;;;;;;14.50;6.03;;;;;;;8.25;100.00;102847.53;6049108;28;20026;-73
2023/12/17 04:48:09;;;;;;;14.65;5.93;;;;;;;8.26;100.00;102843.97;6044804;28;20074;-73
2023/12/17 04:51:05;;;;;;;12.73;6.03;;;;;;;8.26;100.00;102844.78;6038575;28;20041;-73
2023/12/17 04:54:00;;;;;;;11.82;5.03;;;;;;;8.26;100.00;102836.03;6051273;28;20107;-73
2023/12/17 04:56:56;;;;;;;12.00;5.80;;;;;;;8.24;100.00;102840.50;6050249;28;20424;-73
2023/12/17 04:59:51;;;;;;;11.10;5.35;;;;;;;8.22;100.00;102830.03;6053446;28;20376;-73
2023/12/17 05:02:46;;;;;;;12.23;5.87;;;;;;;8.27;100.00;102846.53;6050520;28;20029;-73
2023/12/17 05:05:42;;;;;;;13.37;5.93;;;;;;;8.24;100.00;102833.44;6049891;28;20030;-72
2023/12/17 05:08:37;;;;;;;11.25;5.00;;;;;;;8.24;100.00;102846.66;6050034;28;20389;-74
2023/12/17 05:11:33;;;;;;;12.52;5.43;;;;;;;8.28;100.00;102850.91;6050155;28;20114;-73
2023/12/17 05:14:28;;;;;;;13.10;5.77;;;;;;;8.27;100.00;102851.81;6050715;28;20072;-73
2023/12/17 05:17:23;;;;;;;13.63;5.73;;;;;;;8.29;100.00;102857.88;6049920;28;20040;-73
2023/12/17 05:20:19;;;;;;;10.80;4.60;;;;;;;8.28;100.00;102850.91;6050365;28;20513;-73
2023/12/17 05:23:14;;;;;;;11.35;4.82;;;;;;;8.29;100.00;102852.59;6042843;28;20264;-74
2023/12/17 05:26:10;;;;;;;13.83;5.70;;;;;;;8.32;100.00;102868.31;6049844;28;20030;-74
2023/12/17 05:29:05;;;;;;;10.53;5.17;;;;;;;8.22;100.00;102851.19;6053134;28;20034;-73
2023/12/17 05:32:01;;;;;;;13.83;5.67;;;;;;;8.23;100.00;102858.19;6049712;28;20030;-73
2023/12/17 05:34:56;;;;;;;12.77;5.35;;;;;;;8.21;100.00;102854.75;6077519;28;20484;-73
2023/12/17 05:37:51;;;;;;;11.50;5.57;;;;;;;8.27;100.00;102866.81;6047363;28;20026;-73
2023/12/17 05:40:47;;;;;;;10.27;5.13;;;;;;;8.20;100.00;102858.34;6046429;28;20026;-73
2023/12/17 05:43:43;;;;;;;13.30;5.80;;;;;;;8.26;100.00;102876.50;6047504;28;20030;-73
2023/12/17 05:46:46;;;;;;;11.38;5.53;;;;;;;8.27;100.00;102862.41;6047627;28;20037;-74
2023/12/17 05:49:42;;;;;;;11.23;5.40;;;;;;;8.22;100.00;102853.81;6045720;28;20527;-73
2023/12/17 05:52:37;;;;;;;10.70;4.97;;;;;;;8.28;100.00;102868.53;6049929;28;20033;-73
2023/12/17 05:55:34;;;;;;;11.85;5.30;;;;;;;8.27;100.00;102848.31;6049457;28;20034;-74
2023/12/17 05:58:30;;;;;;;13.13;5.75;;;;;;;8.23;100.00;102847.63;6048477;28;20439;-73
2023/12/17 06:01:25;;;;;;;11.57;5.18;;;;;;;8.30;100.00;102864.88;6029937;28;20034;-73
2023/12/17 06:04:21;;;;;;;12.03;5.77;;;;;;;8.28;100.00;102869.41;6049452;28;20523;-73
2023/12/17 06:07:17;;;;;;;10.80;5.00;;;;;;;8.27;100.00;102865.03;6053031;28;20438;-73
2023/12/17 06:10:13;;;;;;;9.40;4.72;;;;;;;8.27;100.00;102874.75;6053553;28;20025;-73
2023/12/17 06:13:09;;;;;;;12.70;5.75;;;;;;;8.29;100.00;102872.88;6031897;28;20065;-72
2023/12/17 06:16:05;;;;;;;12.40;5.80;;;;;;;8.33;100.00;102885.03;6048565;28;20148;-73
2023/12/17 06:19:00;;;;;;;12.88;5.65;;;;;;;8.28;100.00;102887.03;6049613;28;20030;-73
2023/12/17 06:21:55;;;;;;;11.38;5.90;;;;;;;8.27;100.00;102880.91;6060245;28;20022;-73
2023/12/17 06:24:51;;;;;;;12.05;5.22;;;;;;;8.30;100.00;102880.75;6046274;28;20096;-73
2023/12/17 06:27:48;;;;;;;10.55;4.90;;;;;;;8.23;100.00;102854.69;6029858;28;20543;-72
2023/12/17 06:30:44;;;;;;;10.80;5.47;;;;;;;8.34;100.00;102869.06;6048653;28;20481;-73
2023/12/17 06:33:39;;;;;;;14.13;6.17;;;;;;;8.28;100.00;102861.47;6048685;28;20041;-73
2023/12/17 06:36:41;;;;;;;13.77;5.87;;;;;;;8.30;100.00;102874.59;6048396;28;20045;-73
2023/12/17 06:39:43;;;;;;;12.00;5.03;;;;;;;8.33;100.00;102890.31;6047706;28;20088;-73
2023/12/17 06:42:38;;;;;;;11.95;6.07;;;;;;;8.27;100.00;102888.81;6049033;28;20112;-72
2023/12/17 06:45:34;;;;;;;14.17;6.47;;;;;;;8.22;100.00;102884.66;6046729;28;20040;-73
2023/12/17 06:48:31;;;;;;;13.57;6.28;;;;;;;8.29;100.00;102884.31;6048589;28;20404;-73
2023/12/17 06:51:27;;;;;;;11.40;5.68;;;;;;;8.28;100.00;102877.34;6030509;28;20571;-74
2023/12/17 06:54:22;;;;;;;13.63;6.10;;;;;;;8.25;100.00;102872.16;6048384;28;20026;-73
2023/12/17 06:57:21;;;;;;;12.10;5.23;;;;;;;8.28;100.00;102873.84;6047038;28;20037;-74
2023/12/17 07:00:19;;;;;;;13.25;6.50;;;;;;;8.28;100.00;102868.53;6030595;28;20030;-74
2023/12/17 07:03:18;;;;;;;12.85;5.82;;;;;;;8.30;100.00;102875.47;6048691;28;20120;-73
2023/12/17 07:06:16;;;;;;;12.80;6.38;;;;;;;8.25;100.00;102880.09;6046689;28;20034;-74
2023/12/17 07:09:13;;;;;;;12.45;5.95;;;;;;;8.30;100.00;102891.31;6031188;28;20073;-73
2023/12/17 07:12:09;;;;;;;11.73;5.68;;;;;;;8.29;100.00;102879.03;6062413;28;20113;-73
2023/12/17 07:15:04;;;;;;;11.48;5.68;;;;;;;8.30;100.00;102885.16;6048189;28;20045;-73
2023/12/17 07:18:00;;;;;;;13.07;6.70;;;;;;;8.33;100.00;102877.94;6046351;28;20033;-73
2023/12/17 07:20:57;;;;;;;13.77;6.40;;;;;;;8.34;100.00;102874.34;6048581;28;20034;-73
2023/12/17 07:23:52;;;;;;;11.70;5.45;;;;;;;8.38;100.00;102880.34;6029301;28;20054;-73
2023/12/17 07:26:48;;;;;;;16.53;6.83;;;;;;;8.41;100.00;102893.41;6046670;28;20032;-73
2023/12/17 07:29:44;;;;;;;13.88;6.22;;;;;;;8.37;100.00;102886.56;6048064;28;20273;-74
2023/12/17 07:32:39;;;;;;;13.23;6.22;;;;;;;8.41;100.00;102877.56;6023890;28;20049;-74
2023/12/17 07:35:34;;;;;;;13.67;6.20;;;;;;;8.36;100.00;102883.09;6040243;28;20064;-73
2023/12/17 07:38:30;;;;;;;13.50;5.77;;;;;;;8.34;100.00;102889.38;6052684;28;20032;-73
2023/12/17 07:41:25;;;;;;;15.02;7.32;;;;;;;8.41;100.00;102905.78;6034558;28;20030;-73
2023/12/17 07:44:21;;;;;;;12.17;6.43;;;;;;;8.44;100.00;102889.75;6051996;28;20076;-72
2023/12/17 07:47:20;;;;;;;13.23;6.50;;;;;;;8.37;100.00;102863.63;6050280;28;20265;-74
2023/12/17 07:50:16;;;;;;;13.55;6.78;;;;;;;8.46;100.00;102886.09;6046276;28;20029;-74
2023/12/17 07:53:11;;;;;;;14.23;6.57;;;;;;;8.44;100.00;102881.81;6052518;28;20033;-74
2023/12/17 07:56:10;;;;;;;13.87;6.67;;;;;;;8.32;100.00;102863.00;6050415;28;20057;-74
2023/12/17 07:59:05;;;;;;;12.02;6.32;;;;;;;8.51;100.00;102877.91;6050057;28;20025;-74
2023/12/17 08:02:00;;;;;;;14.37;6.33;;;;;;;8.42;100.00;102857.25;6052356;28;20029;-74
2023/12/17 08:04:56;;;;;;;13.70;6.13;;;;;;;8.45;100.00;102867.69;6051810;28;20195;-75
2023/12/17 08:07:51;;;;;;;12.50;5.53;;;;;;;8.47;100.00;102873.75;6049879;28;20276;-72
2023/12/17 08:10:47;;;;;;;13.83;6.53;;;;;;;8.50;100.00;102870.94;6051671;28;20537;-73
2023/12/17 08:13:43;;;;;;;12.70;6.05;;;;;;;8.51;100.00;102892.00;6052186;28;20302;-72
2023/12/17 08:16:39;;;;;;;15.43;6.35;;;;;;;8.46;100.00;102878.16;6052654;28;20235;-72
2023/12/17 08:19:35;;;;;;;12.70;6.13;;;;;;;8.54;100.00;102891.84;6033632;28;20025;-73
2023/12/17 08:22:32;;;;;;;14.73;6.60;;;;;;;8.52;100.00;102892.84;6049885;28;20288;-73
2023/12/17 08:25:27;;;;;;;12.05;5.47;;;;;;;8.55;100.00;102901.50;6051648;28;20055;-74
2023/12/17 08:28:23;;;;;;;11.60;5.75;;;;;;;8.54;100.00;102904.19;6051718;28;20030;-72
2023/12/17 08:31:19;;;;;;;15.40;6.22;;;;;;;8.57;100.00;102906.69;6050746;28;20353;-72
2023/12/17 08:34:14;;;;;;;13.93;6.10;;;;;;;8.53;100.00;102897.22;6050823;28;20029;-72
2023/12/17 08:37:09;;;;;;;12.53;5.80;;;;;;;8.53;100.00;102891.94;6051630;28;20473;-73
2023/12/17 08:40:05;;;;;;;16.20;6.57;;;;;;;8.57;100.00;102907.56;6051389;28;20782;-74
2023/12/17 08:43:01;;;;;;;15.00;6.35;;;;;;;8.50;100.00;102902.66;6065252;28;20092;-74
2023/12/17 08:45:57;;;;;;;12.02;5.95;;;;;;;8.50;100.00;102898.25;6056211;28;20440;-73
2023/12/17 08:48:53;;;;;;;12.40;6.40;;;;;;;8.52;100.00;102890.22;6046111;28;20029;-72
2023/12/17 08:51:49;;;;;;;14.02;5.90;;;;;;;8.54;100.00;102889.19;6050976;28;20072;-73
2023/12/17 08:54:45;;;;;;;15.25;6.35;;;;;;;8.51;100.00;102888.50;6050312;28;20044;-73
2023/12/17 08:57:40;;;;;;;12.87;6.27;;;;;;;8.55;100.00;102900.63;6050549;28;20029;-72
2023/12/17 09:37:05;;;;;;;18.08;8.00;;;;;;;8.71;100.00;102875.97;6141355;28;20363;-72
2023/12/17 09:40:02;;;;;;;16.83;6.00;;;;;;;8.82;100.00;102878.03;6115175;28;20036;-72
2023/12/17 09:42:59;;;;;;;14.15;7.10;;;;;;;8.84;100.00;102862.94;6132599;28;20036;-72
2023/12/17 09:45:55;;;;;;;11.70;5.75;;;;;;;8.88;100.00;102859.19;6125895;28;20105;-73
2023/12/17 09:48:50;;;;;;;17.33;6.57;;;;;;;8.97;100.00;102856.88;6130653;28;20036;-73
2023/12/17 09:51:47;;;;;;;15.65;6.25;;;;;;;9.02;100.00;102864.59;6132797;28;20037;-74
2023/12/17 09:54:43;;;;;;;13.57;6.13;;;;;;;9.02;100.00;102854.00;6136683;28;20387;-73
2023/12/17 09:57:38;;;;;;;10.80;5.55;;;;;;;9.09;100.00;102842.16;6131328;28;20044;-74
2023/12/17 10:00:33;;;;;;;15.05;6.50;;;;;;;9.13;100.00;102842.84;6137927;28;20040;-74
2023/12/17 10:03:30;;;;;;;17.33;7.20;;;;;;;9.18;100.00;102857.53;6123760;28;20060;-73
2023/12/17 10:06:25;;;;;;;13.73;5.82;;;;;;;9.09;100.00;102854.53;6128407;28;20029;-73
2023/12/17 10:09:20;;;;;;;13.80;5.77;;;;;;;8.96;100.00;102854.34;6132321;28;20033;-74
2023/12/17 10:12:16;;;;;;;11.38;5.22;;;;;;;9.00;100.00;102842.63;6136368;28;20028;-74
2023/12/17 10:15:12;;;;;;;10.77;5.40;;;;;;;8.98;100.00;102848.03;6129460;28;20437;-72
2023/12/17 10:18:07;;;;;;;10.35;4.68;;;;;;;9.02;100.00;102848.72;6127753;28;20051;-73
2023/12/17 10:21:04;;;;;;;10.70;4.93;;;;;;;8.90;100.00;102844.09;6137745;28;20119;-72
2023/12/17 10:23:59;;;;;;;8.77;4.10;;;;;;;9.04;100.00;102838.91;6130999;28;20016;-73
2023/12/17 10:26:55;;;;;;;7.95;3.58;;;;;;;9.12;100.00;102839.34;6130651;28;20032;-74
2023/12/17 10:29:52;;;;;;;7.30;3.47;;;;;;;9.31;100.00;102826.78;6130419;28;20516;-73
2023/12/17 10:32:47;;;;;;;8.32;3.72;;;;;;;9.43;100.00;102827.91;6127592;28;20040;-74
2023/12/17 10:35:42;;;;;;;7.63;3.58;;;;;;;9.42;100.00;102815.59;6129321;28;20060;-73
2023/12/17 10:38:38;;;;;;;7.85;3.47;;;;;;;9.43;100.00;102807.53;6124551;28;20127;-73
2023/12/17 10:41:34;;;;;;;7.78;3.70;;;;;;;9.22;100.00;102794.66;6129287;28;20127;-73
2023/12/17 10:44:30;;;;;;;6.85;3.17;;;;;;;9.16;100.00;102802.97;6131792;28;20060;-73
2023/12/17 10:47:25;;;;;;;7.80;3.22;;;;;;;9.40;100.00;102806.88;6113297;28;20029;-74
2023/12/17 10:50:20;;;;;;;7.55;3.60;;;;;;;9.38;100.00;102803.44;6105677;28;20460;-73
2023/12/17 10:53:16;;;;;;;7.30;3.30;;;;;;;9.31;100.00;102786.22;6117989;28;20119;-73
2023/12/17 10:56:12;;;;;;;6.77;2.73;;;;;;;9.29;100.00;102791.59;6117986;28;20275;-73
2023/12/17 10:59:11;;;;;;;8.25;3.33;;;;;;;9.34;100.00;102789.56;6109728;28;20439;-74
2023/12/17 11:02:10;;;;;;;6.68;3.05;;;;;;;9.43;100.00;102790.81;6106073;28;20090;-73
2023/12/17 11:05:05;;;;;;;8.00;3.50;;;;;;;9.47;100.00;102800.28;6115566;28;20029;-73
2023/12/17 11:08:01;;;;;;;5.55;2.83;;;;;;;9.45;100.00;102802.19;6106946;28;20028;-72
2023/12/17 11:10:58;;;;;;;5.17;2.60;;;;;;;9.31;100.00;102795.00;6100547;28;20047;-72
2023/12/17 11:13:53;;;;;;;6.47;3.17;;;;;;;9.21;100.00;102792.97;6111044;28;20024;-72
2023/12/17 11:16:48;;;;;;;6.17;2.50;;;;;;;9.22;100.00;102787.59;6113150;28;20048;-73
2023/12/17 11:19:58;;;;;;;6.33;2.40;;;;;;;9.19;100.00;102798.34;6108061;28;20827;-73
2023/12/17 11:22:55;;;;;;;6.78;2.80;;;;;;;9.08;100.00;102795.44;6110127;28;20423;-73
2023/12/17 11:25:53;;;;;;;5.50;2.95;;;;;;;8.97;100.00;102785.44;6110659;28;20037;-73
2023/12/17 11:28:49;;;;;;;5.90;2.42;;;;;;;9.01;100.00;102793.22;6116273;28;20033;-74
2023/12/17 11:33:25;;;;;;;6.50;2.60;;;;;;;8.94;100.00;102787.44;6180663;27;20860;-74
2023/12/17 12:03:27;;;;;;;4.60;2.17;;;;;;;8.96;100.00;102738.78;6124737;28;20739;-74
2023/12/17 12:06:22;;;;;;;4.82;1.92;;;;;;;8.93;100.00;102733.66;6127969;28;20028;-74
2023/12/17 12:09:19;;;;;;;6.20;2.42;;;;;;;8.97;100.00;102744.91;6119511;28;20454;-71
2023/12/17 12:12:26;;;;;;;5.28;2.55;;;;;;;8.94;100.00;102734.50;6120100;28;20043;-72
2023/12/17 12:15:22;;;;;;;4.82;2.03;;;;;;;8.98;100.00;102730.75;6114478;28;20025;-72
2023/12/17 12:18:21;;;;;;;3.90;2.40;;;;;;;8.91;100.00;102724.09;6124491;28;20485;-72
2023/12/17 12:21:18;;;;;;;6.70;2.50;;;;;;;8.79;100.00;102719.47;6118806;28;20472;-73
2023/12/17 12:24:19;;;;;;;4.75;2.25;;;;;;;8.85;100.00;102730.59;6120244;28;20056;-73
2023/12/17 12:27:19;;;;;;;5.38;2.30;;;;;;;8.85;100.00;102735.00;6121240;28;20082;-73
2023/12/17 12:30:25;;;;;;;4.82;2.40;;;;;;;8.87;100.00;102738.41;6121868;28;20051;-73
2023/12/17 12:33:21;;;;;;;4.68;2.20;;;;;;;8.89;100.00;102726.81;6119316;28;20072;-72
2023/12/17 12:36:16;;;;;;;4.30;2.00;;;;;;;8.96;100.00;102740.56;6122721;28;20081;-73
2023/12/17 12:39:18;;;;;;;4.20;2.35;;;;;;;8.93;100.00;102711.63;6120484;28;20318;-73
2023/12/17 12:42:20;;;;;;;6.75;1.98;;;;;;;8.93;100.00;102706.34;6129759;28;20043;-73
2023/12/17 12:45:15;;;;;;;3.85;1.80;;;;;;;9.00;100.00;102705.03;6111735;28;20037;-72
2023/12/17 12:48:22;;;;;;;4.17;1.90;;;;;;;8.96;100.00;102685.00;6127767;28;20086;-73
2023/12/17 12:51:17;;;;;;;3.45;1.83;;;;;;;8.98;100.00;102683.09;6125427;28;20124;-74
2023/12/17 12:54:12;;;;;;;3.30;1.77;;;;;;;8.98;100.00;102680.47;6135510;28;20028;-74
2023/12/17 12:57:08;;;;;;;4.40;2.00;;;;;;;8.92;100.00;102676.38;6123285;28;20028;-73
2023/12/17 13:00:03;;;;;;;4.27;1.87;;;;;;;8.97;100.00;102670.81;6121413;28;20375;-73
2023/12/17 13:02:59;;;;;;;3.17;1.67;;;;;;;8.92;100.00;102672.88;6124755;28;20395;-74
2023/12/17 13:05:54;;;;;;;5.20;1.80;;;;;;;8.92;100.00;102683.44;6125518;28;20107;-74
2023/12/17 13:08:50;;;;;;;4.30;1.80;;;;;;;8.85;100.00;102655.66;6113631;28;20022;-75
2023/12/17 13:11:47;;;;;;;4.25;1.80;;;;;;;8.86;100.00;102658.19;6125330;28;20290;-74
2023/12/17 13:14:43;;;;;;;4.47;1.90;;;;;;;8.87;100.00;102674.94;6099609;28;20539;-74
2023/12/17 13:17:39;;;;;;;4.07;1.83;;;;;;;8.76;100.00;102650.88;6107553;28;20048;-73
2023/12/17 13:20:35;;;;;;;3.65;1.63;;;;;;;8.83;100.00;102678.69;6106445;28;20423;-74
2023/12/17 13:23:30;;;;;;;3.20;1.55;;;;;;;8.76;100.00;102666.75;6083912;28;20063;-75
2023/12/17 13:26:25;;;;;;;6.10;2.03;;;;;;;8.77;100.00;102679.91;6108448;28;20020;-73
2023/12/17 13:29:21;;;;;;;3.47;2.20;;;;;;;8.77;100.00;102679.91;6103161;28;20029;-75
2023/12/17 13:32:16;;;;;;;3.67;1.60;;;;;;;8.77;100.00;102679.03;6105395;28;20029;-73
2023/12/17 13:35:11;;;;;;;3.63;1.77;;;;;;;8.71;100.00;102674.94;6101165;28;20464;-74
2023/12/17 13:38:07;;;;;;;3.70;2.10;;;;;;;8.62;100.00;102664.88;6112134;28;20471;-72
2023/12/17 13:41:11;;;;;;;3.10;1.63;;;;;;;8.55;100.00;102646.78;6103024;28;20378;-75
2023/12/17 13:44:07;;;;;;;3.85;1.95;;;;;;;8.60;100.00;102652.66;6088039;28;20028;-74
2023/12/17 13:47:02;;;;;;;4.80;2.23;;;;;;;8.58;100.00;102650.13;6106669;28;20029;-75
2023/12/17 13:49:59;;;;;;;4.20;2.07;;;;;;;8.60;100.00;102658.81;6105489;28;20291;-74
2023/12/17 13:52:55;;;;;;;3.85;1.92;;;;;;;8.58;100.00;102657.19;6099821;28;20112;-74
2023/12/17 13:55:51;;;;;;;4.78;1.90;;;;;;;8.45;100.00;102635.03;6107281;28;20036;-74
2023/12/17 13:58:46;;;;;;;4.15;1.85;;;;;;;8.49;100.00;102631.25;6105947;28;20064;-74
2023/12/17 14:01:42;;;;;;;3.47;1.73;;;;;;;8.46;100.00;102631.44;6086156;28;20041;-74
2023/12/17 14:04:37;;;;;;;3.60;1.77;;;;;;;8.40;100.00;102626.50;6101196;28;20043;-73
2023/12/17 14:07:32;;;;;;;4.27;1.93;;;;;;;8.36;100.00;102618.75;6107366;28;20039;-72
2023/12/17 14:10:28;;;;;;;5.27;2.03;;;;;;;8.46;100.00;102636.72;6102836;28;20029;-74
2023/12/17 14:13:24;;;;;;;4.45;1.92;;;;;;;8.37;100.00;102628.34;6107898;28;20379;-74
2023/12/17 14:16:28;;;;;;;5.38;2.35;;;;;;;8.35;100.00;102640.81;6112370;28;20074;-73
2023/12/17 14:19:23;;;;;;;4.50;1.90;;;;;;;8.28;100.00;102642.09;6109631;28;20033;-75
2023/12/17 14:22:20;;;;;;;3.55;1.67;;;;;;;8.29;100.00;102640.28;6096017;28;20032;-73
2023/12/17 14:25:15;;;;;;;4.20;1.77;;;;;;;8.17;100.00;102628.59;6106971;28;20032;-72
2023/12/17 14:28:10;;;;;;;5.07;2.10;;;;;;;8.18;100.00;102640.84;6104181;28;20056;-73
2023/12/17 14:31:07;;;;;;;5.03;2.20;;;;;;;8.12;100.00;102637.69;6100421;28;20272;-72
2023/12/17 14:34:02;;;;;;;4.95;2.38;;;;;;;8.08;100.00;102631.72;6105665;28;20037;-75
2023/12/17 14:36:58;;;;;;;4.63;2.10;;;;;;;8.08;100.00;102623.78;6106946;28;20106;-74